Time;durP1;ratioP1;P1;durP2;ratioP2;P2;SDS_P1;SDS_P2;PMS_P1;PMS_P2;Temp;Humidity;BMP_temperature;BMP_pressure;BME280_temperature;BME280_humidity;BME280_pressure;Samples;Min_cycle;Max_cycle;Signal;HPM_P1;HPM_P2
2022/04/21 00:00:16;;;;;;;6.20;4.25;;;7.10;99.90;;;;;;5013205;28;20033;-77
2022/04/21 00:02:43;;;;;;;7.28;4.80;;;7.20;99.90;;;;;;5025640;28;20096;-77
2022/04/21 00:05:10;;;;;;;7.40;4.07;;;7.00;99.90;;;;;;5008494;28;20152;-77
2022/04/21 00:07:36;;;;;;;7.20;4.60;;;6.90;99.90;;;;;;5009137;28;20034;-77
2022/04/21 00:10:07;;;;;;;10.25;5.18;;;6.90;99.90;;;;;;5010555;28;20120;-77
2022/04/21 00:12:36;;;;;;;6.03;4.15;;;6.80;99.90;;;;;;5010124;28;20132;-77
2022/04/21 00:15:06;;;;;;;6.72;4.47;;;6.80;99.90;;;;;;5026188;28;20124;-77
2022/04/21 00:17:32;;;;;;;8.10;4.93;;;6.70;99.90;;;;;;5011942;28;20335;-77
2022/04/21 00:19:57;;;;;;;7.45;4.65;;;6.60;99.90;;;;;;5013037;28;20045;-77
2022/04/21 00:25:08;;;;;;;6.75;4.93;;;6.50;99.90;;;;;;5015220;28;20056;-77
2022/04/21 00:27:41;;;;;;;7.65;5.53;;;6.40;99.90;;;;;;5016667;28;20037;-77
2022/04/21 00:30:09;;;;;;;6.90;5.43;;;6.30;99.90;;;;;;5016649;28;20077;-77
2022/04/21 00:32:36;;;;;;;12.15;6.55;;;6.20;99.90;;;;;;4994313;28;20072;-77
2022/04/21 00:35:04;;;;;;;8.52;5.13;;;6.10;99.90;;;;;;5008667;28;20037;-77
2022/04/21 00:37:29;;;;;;;9.95;5.65;;;6.00;99.90;;;;;;5013211;28;20118;-77
2022/04/21 00:39:55;;;;;;;9.70;6.32;;;6.00;99.90;;;;;;5013682;28;20527;-77
2022/04/21 00:42:21;;;;;;;8.45;5.70;;;6.00;99.90;;;;;;5015567;28;20045;-77
2022/04/21 00:44:49;;;;;;;12.45;7.53;;;6.00;99.90;;;;;;5014439;28;20563;-78
2022/04/21 00:47:14;;;;;;;10.88;7.10;;;5.90;99.90;;;;;;5015192;28;20037;-78
2022/04/21 00:49:40;;;;;;;9.25;5.70;;;5.90;99.90;;;;;;5014149;28;20041;-77
2022/04/21 00:52:07;;;;;;;10.93;6.63;;;6.00;99.90;;;;;;5016368;28;20030;-77
2022/04/21 00:54:33;;;;;;;7.82;5.75;;;5.90;99.90;;;;;;5015658;28;20037;-77
2022/04/21 00:57:04;;;;;;;9.93;6.28;;;6.00;99.90;;;;;;5015006;28;20046;-77
2022/04/21 00:59:30;;;;;;;10.63;7.05;;;5.90;99.90;;;;;;5011431;28;20060;-77
2022/04/21 01:04:41;;;;;;;10.57;6.80;;;6.00;99.90;;;;;;5026723;28;20049;-77
2022/04/21 01:07:09;;;;;;;11.95;6.32;;;6.10;99.90;;;;;;5028484;28;20049;-77
2022/04/21 01:09:36;;;;;;;10.65;5.75;;;6.10;99.90;;;;;;5012225;28;20043;-77
2022/04/21 01:12:08;;;;;;;9.80;7.00;;;6.20;99.90;;;;;;5014061;28;20124;-77
2022/04/21 01:14:38;;;;;;;11.93;6.70;;;6.20;99.90;;;;;;5012062;28;20052;-77
2022/04/21 01:17:05;;;;;;;9.15;6.43;;;6.20;99.90;;;;;;5015432;28;20116;-77
2022/04/21 01:19:30;;;;;;;9.93;6.22;;;6.10;99.90;;;;;;5014204;28;20104;-77
2022/04/21 01:21:56;;;;;;;11.15;7.38;;;6.00;99.90;;;;;;5018651;28;20513;-77
2022/04/21 01:24:21;;;;;;;10.35;6.82;;;6.00;99.90;;;;;;5015546;28;20045;-77
2022/04/21 01:26:48;;;;;;;11.23;6.93;;;5.90;99.90;;;;;;5015262;28;20128;-78
2022/04/21 01:29:14;;;;;;;8.70;6.10;;;5.90;99.90;;;;;;5012011;28;20364;-77
2022/04/21 01:31:40;;;;;;;7.70;5.97;;;5.90;99.90;;;;;;5028545;28;20041;-77
2022/04/21 01:34:05;;;;;;;9.00;5.90;;;5.90;99.90;;;;;;5011675;28;20052;-77
2022/04/21 01:36:31;;;;;;;12.57;8.00;;;5.80;99.90;;;;;;5010652;28;20049;-77
2022/04/21 01:41:41;;;;;;;12.75;8.50;;;5.80;99.90;;;;;;5012203;28;20083;-77
2022/04/21 01:44:06;;;;;;;12.52;7.80;;;5.80;99.90;;;;;;5030359;28;20176;-77
2022/04/21 01:46:32;;;;;;;9.35;7.47;;;5.90;99.90;;;;;;5013315;28;20041;-77
2022/04/21 01:48:58;;;;;;;12.63;6.90;;;5.90;99.90;;;;;;5014610;28;20053;-77
2022/04/21 01:51:24;;;;;;;12.82;8.50;;;6.00;99.90;;;;;;5013893;28;20033;-77
2022/04/21 01:53:49;;;;;;;10.25;7.15;;;6.00;99.90;;;;;;5014693;28;20053;-78
2022/04/21 01:56:16;;;;;;;10.32;6.53;;;6.10;99.90;;;;;;5000776;28;20048;-78
2022/04/21 01:58:42;;;;;;;15.68;7.90;;;6.10;99.90;;;;;;5015292;28;20091;-77
2022/04/21 02:01:08;;;;;;;12.35;7.15;;;6.20;99.90;;;;;;5011192;28;21775;-77
2022/04/21 02:03:33;;;;;;;15.45;7.43;;;6.30;99.90;;;;;;5010502;28;20048;-77
2022/04/21 02:06:00;;;;;;;10.80;6.85;;;6.30;99.90;;;;;;5011054;28;20407;-77
2022/04/21 02:08:27;;;;;;;12.05;8.20;;;6.30;99.90;;;;;;5011758;28;20065;-78
2022/04/21 02:10:53;;;;;;;11.80;6.80;;;6.40;99.90;;;;;;5011597;28;20037;-77
2022/04/21 02:13:19;;;;;;;11.25;7.55;;;6.40;99.90;;;;;;5012706;28;20095;-78
2022/04/21 02:15:45;;;;;;;13.65;7.85;;;6.40;99.90;;;;;;5008703;28;20085;-78
2022/04/21 02:18:10;;;;;;;13.18;7.30;;;6.40;99.90;;;;;;5014871;28;20056;-78
2022/04/21 02:20:36;;;;;;;11.52;6.68;;;6.30;99.90;;;;;;5012097;28;20556;-78
2022/04/21 02:23:02;;;;;;;12.95;7.53;;;6.30;99.90;;;;;;5015738;28;20423;-77
2022/04/21 02:25:28;;;;;;;12.45;7.80;;;6.30;99.90;;;;;;5010797;28;20041;-78
2022/04/21 02:27:53;;;;;;;11.93;7.25;;;6.30;99.90;;;;;;5015581;28;20060;-78
2022/04/21 02:30:19;;;;;;;10.77;7.10;;;6.20;99.90;;;;;;5011681;28;20041;-78
2022/04/21 02:32:45;;;;;;;11.90;8.90;;;6.20;99.90;;;;;;5010216;28;20037;-78
2022/04/21 02:35:12;;;;;;;12.60;6.95;;;6.20;99.90;;;;;;5010129;28;21041;-78
2022/04/21 02:37:40;;;;;;;11.02;7.43;;;6.10;99.90;;;;;;5010846;28;20124;-78
2022/04/21 02:40:09;;;;;;;10.70;6.60;;;6.10;99.90;;;;;;5012186;28;20050;-78
2022/04/21 02:42:34;;;;;;;12.30;8.88;;;6.10;99.90;;;;;;5028255;28;20120;-78
2022/04/21 02:45:00;;;;;;;13.48;6.82;;;6.10;99.90;;;;;;5012952;28;20144;-78
2022/04/21 02:47:26;;;;;;;12.32;8.75;;;6.10;99.90;;;;;;5015051;28;20040;-78
2022/04/21 02:49:53;;;;;;;12.93;6.95;;;6.00;99.90;;;;;;5030559;28;20537;-78
2022/04/21 02:52:19;;;;;;;13.18;8.80;;;6.00;99.90;;;;;;5014941;28;20033;-78
2022/04/21 02:57:30;;;;;;;12.35;7.97;;;6.00;99.90;;;;;;5011512;28;20041;-78
2022/04/21 03:00:02;;;;;;;11.68;7.63;;;5.90;99.90;;;;;;5010582;28;20415;-78
2022/04/21 03:02:28;;;;;;;9.50;6.50;;;5.90;99.90;;;;;;5010363;28;20464;-78
2022/04/21 03:04:54;;;;;;;13.43;7.78;;;6.00;99.90;;;;;;5010332;28;20069;-78
2022/04/21 03:07:22;;;;;;;11.48;6.85;;;6.00;99.90;;;;;;5008280;28;20045;-78
2022/04/21 03:09:48;;;;;;;12.35;7.45;;;6.00;99.90;;;;;;5027585;28;20033;-78
2022/04/21 03:12:13;;;;;;;15.70;7.80;;;6.00;99.90;;;;;;5009870;28;20372;-78
2022/04/21 03:14:40;;;;;;;11.38;7.57;;;6.00;99.90;;;;;;5011807;28;20049;-78
2022/04/21 03:17:10;;;;;;;11.73;7.80;;;5.90;99.90;;;;;;5011910;28;20098;-78
2022/04/21 03:19:37;;;;;;;11.48;8.05;;;6.00;99.90;;;;;;5013101;28;20460;-78
2022/04/21 03:24:47;;;;;;;13.55;8.50;;;5.90;99.90;;;;;;5015023;28;20041;-78
2022/04/21 03:27:13;;;;;;;12.52;7.60;;;5.90;99.90;;;;;;5006850;28;20044;-78
2022/04/21 03:29:39;;;;;;;9.85;6.40;;;5.90;99.90;;;;;;5009486;28;20395;-78
2022/04/21 03:32:09;;;;;;;11.85;7.13;;;5.90;99.90;;;;;;5009643;28;20124;-78
2022/04/21 03:34:42;;;;;;;10.27;7.28;;;5.90;99.90;;;;;;5009220;28;20052;-78
2022/04/21 03:37:09;;;;;;;12.45;8.40;;;5.90;99.90;;;;;;5009111;28;20052;-78
2022/04/21 03:39:36;;;;;;;11.23;7.85;;;5.90;99.90;;;;;;5027299;28;20037;-78
2022/04/21 03:42:06;;;;;;;11.25;7.93;;;5.80;99.90;;;;;;5012260;28;20308;-78
2022/04/21 03:44:32;;;;;;;14.05;8.82;;;5.80;99.90;;;;;;5011336;28;20037;-78
2022/04/21 03:46:59;;;;;;;13.88;8.48;;;5.80;99.90;;;;;;5011942;28;20466;-78
2022/04/21 03:49:26;;;;;;;11.15;7.30;;;5.80;99.90;;;;;;5012384;28;20038;-78
2022/04/21 03:51:51;;;;;;;14.63;9.20;;;5.80;99.90;;;;;;5010910;28;20041;-78
2022/04/21 03:54:17;;;;;;;12.88;9.77;;;5.70;99.90;;;;;;5017061;28;20098;-78
2022/04/21 03:56:42;;;;;;;10.55;7.70;;;5.80;99.90;;;;;;5012884;28;20202;-78
2022/04/21 03:59:08;;;;;;;13.40;8.40;;;5.80;99.90;;;;;;5011630;28;20167;-78
2022/04/21 04:01:34;;;;;;;13.27;8.38;;;5.70;99.90;;;;;;5028586;28;20129;-78
2022/04/21 04:03:59;;;;;;;10.38;8.07;;;5.70;99.90;;;;;;5013114;28;20042;-78
2022/04/21 04:11:53;;;;;;;12.25;8.70;;;5.70;99.90;;;;;;5014717;28;20041;-78
2022/04/21 04:14:21;;;;;;;12.48;8.75;;;5.60;99.90;;;;;;5014549;28;20389;-78
2022/04/21 04:16:47;;;;;;;11.82;7.68;;;5.70;99.90;;;;;;5026838;28;20041;-78
2022/04/21 04:19:13;;;;;;;10.95;7.20;;;5.60;99.90;;;;;;5016977;28;20043;-79
2022/04/21 04:21:39;;;;;;;12.20;7.82;;;5.60;99.90;;;;;;5013746;28;20037;-78
2022/04/21 04:24:05;;;;;;;11.95;8.52;;;5.60;99.90;;;;;;5017821;28;20034;-78
2022/04/21 04:26:32;;;;;;;11.40;7.40;;;5.60;99.90;;;;;;5016769;28;20112;-78
2022/04/21 04:28:58;;;;;;;10.70;7.00;;;5.60;99.90;;;;;;5015209;28;20037;-78
2022/04/21 04:31:24;;;;;;;12.10;8.27;;;5.60;99.90;;;;;;5008352;28;20064;-78
2022/04/21 04:33:49;;;;;;;13.20;8.52;;;5.60;99.90;;;;;;5012742;28;20419;-79
2022/04/21 04:36:16;;;;;;;11.50;8.38;;;5.60;99.90;;;;;;5012042;28;20064;-78
2022/04/21 04:38:44;;;;;;;12.23;8.15;;;5.60;99.90;;;;;;5012869;28;20128;-78
2022/04/21 04:44:04;;;;;;;15.35;7.75;;;5.70;99.90;;;;;;4996706;28;20418;-78
2022/04/21 04:46:36;;;;;;;11.88;7.50;;;5.70;99.90;;;;;;5013381;28;20033;-78
2022/04/21 04:49:02;;;;;;;14.68;7.10;;;5.70;99.90;;;;;;5017865;28;20355;-78
2022/04/21 04:51:28;;;;;;;14.63;6.85;;;5.70;99.90;;;;;;5012989;28;20029;-78
2022/04/21 04:53:53;;;;;;;11.00;7.57;;;5.70;99.90;;;;;;5016660;28;20047;-78
2022/04/21 04:56:21;;;;;;;12.85;6.65;;;5.80;99.90;;;;;;5017107;28;20406;-78
2022/04/21 04:58:47;;;;;;;12.48;7.97;;;5.80;99.90;;;;;;5016863;28;20046;-78
2022/04/21 05:01:13;;;;;;;11.52;7.50;;;5.80;99.90;;;;;;5013963;28;20404;-78
2022/04/21 05:03:39;;;;;;;11.32;7.70;;;5.80;99.90;;;;;;5028663;28;20037;-78
2022/04/21 05:06:05;;;;;;;11.18;8.40;;;5.90;99.90;;;;;;5037344;22;20050;-85
2022/04/21 05:08:30;;;;;;;10.32;7.43;;;5.90;99.90;;;;;;5048323;28;20033;-85
2022/04/21 05:10:56;;;;;;;10.35;8.10;;;5.90;99.90;;;;;;5048020;28;20044;-85
2022/04/21 05:13:22;;;;;;;9.90;5.95;;;5.90;99.90;;;;;;5023989;28;20044;-84
2022/04/21 05:15:48;;;;;;;10.40;6.60;;;6.00;99.90;;;;;;5032209;28;20041;-84
2022/04/21 05:18:14;;;;;;;12.27;6.85;;;6.00;99.90;;;;;;5016379;28;20135;-84
2022/04/21 05:20:40;;;;;;;11.32;6.90;;;6.00;99.90;;;;;;5050842;28;20049;-84
2022/04/21 05:23:06;;;;;;;11.82;7.22;;;6.10;99.90;;;;;;5036373;28;20055;-84
2022/04/21 05:25:36;;;;;;;9.60;6.75;;;6.20;99.90;;;;;;5036038;28;20095;-84
2022/04/21 05:28:02;;;;;;;10.90;7.03;;;6.20;99.90;;;;;;5035920;28;20151;-85
2022/04/21 05:33:21;;;;;;;10.48;6.47;;;6.30;99.90;;;;;;5052173;28;20075;-84
2022/04/21 05:35:47;;;;;;;9.25;6.35;;;6.40;99.90;;;;;;5052048;28;20124;-85
2022/04/21 05:38:16;;;;;;;8.55;5.75;;;6.50;99.90;;;;;;5052223;28;20124;-84
2022/04/21 05:40:45;;;;;;;10.23;6.28;;;6.60;99.90;;;;;;5052146;28;20044;-85
2022/04/21 05:43:14;;;;;;;10.30;6.28;;;6.70;99.90;;;;;;5052043;28;20154;-84
2022/04/21 05:45:40;;;;;;;9.10;5.63;;;6.70;99.90;;;;;;5051938;28;20176;-84
2022/04/21 05:48:06;;;;;;;7.82;5.75;;;6.80;99.90;;;;;;5051962;28;20068;-85
2022/04/21 05:50:32;;;;;;;8.77;5.47;;;6.90;99.90;;;;;;5052262;28;20045;-85
2022/04/21 05:53:02;;;;;;;10.93;6.45;;;7.00;99.90;;;;;;5035548;28;20127;-84
2022/04/21 05:55:29;;;;;;;6.57;5.90;;;7.10;99.90;;;;;;5051937;28;20491;-84
2022/04/21 05:57:55;;;;;;;7.80;4.93;;;7.20;99.90;;;;;;5035538;28;20041;-84
2022/04/21 06:00:21;;;;;;;8.02;5.07;;;7.30;99.90;;;;;;5035348;28;20524;-84
2022/04/21 06:02:46;;;;;;;6.38;4.20;;;7.40;99.90;;;;;;5034845;28;20124;-84
2022/04/21 06:05:12;;;;;;;7.68;4.55;;;7.50;99.90;;;;;;5051762;28;20124;-84
2022/04/21 06:07:39;;;;;;;12.27;5.80;;;7.70;99.90;;;;;;5051787;28;20049;-83
2022/04/21 06:10:05;;;;;;;8.55;5.30;;;7.80;99.90;;;;;;5035017;28;20037;-83
2022/04/21 06:12:30;;;;;;;7.15;4.88;;;7.90;99.90;;;;;;5051533;28;20039;-84
2022/04/21 06:14:56;;;;;;;6.75;5.28;;;8.00;99.90;;;;;;5051692;28;20482;-83
2022/04/21 06:17:21;;;;;;;8.93;5.40;;;8.20;99.90;;;;;;5051506;28;20051;-82
2022/04/21 06:19:47;;;;;;;6.35;3.92;;;8.30;99.90;;;;;;5034726;28;20474;-84
2022/04/21 06:22:13;;;;;;;5.60;3.88;;;8.40;99.90;;;;;;5051679;28;20529;-83
2022/04/21 06:24:39;;;;;;;5.25;4.07;;;8.50;99.90;;;;;;5034240;28;20042;-83
2022/04/21 06:27:05;;;;;;;6.00;3.58;;;8.60;99.90;;;;;;5034263;28;20045;-83
2022/04/21 06:29:31;;;;;;;5.97;4.00;;;8.80;99.90;;;;;;5051476;28;20048;-83
2022/04/21 06:31:56;;;;;;;4.57;2.97;;;8.80;99.90;;;;;;5051945;28;20431;-82
2022/04/21 06:34:22;;;;;;;3.85;2.85;;;9.00;99.90;;;;;;5051639;28;20033;-83
2022/04/21 06:36:48;;;;;;;6.20;3.40;;;9.10;99.90;;;;;;5034366;28;20048;-84
2022/04/21 06:39:14;;;;;;;4.90;3.15;;;9.20;99.90;;;;;;5034707;28;20029;-83
2022/04/21 06:41:40;;;;;;;3.42;2.70;;;9.30;99.90;;;;;;5034551;28;20517;-83
2022/04/21 06:49:38;;;;;;;4.60;2.85;;;9.60;99.90;;;;;;5014573;28;20132;-82
2022/04/21 06:52:04;;;;;;;4.13;2.25;;;9.70;99.90;;;;;;5051397;28;20072;-82
2022/04/21 06:54:30;;;;;;;6.45;2.63;;;9.80;99.90;;;;;;5051382;28;20466;-82
2022/04/21 06:56:55;;;;;;;5.03;2.75;;;9.90;99.90;;;;;;5051362;28;20136;-82
2022/04/21 06:59:21;;;;;;;4.38;2.50;;;10.00;99.90;;;;;;5051784;28;20486;-83
2022/04/21 07:01:46;;;;;;;4.70;2.28;;;10.10;99.90;;;;;;5051843;28;20045;-82
2022/04/21 07:04:13;;;;;;;3.67;2.00;;;10.20;99.90;;;;;;5051567;28;20037;-82
2022/04/21 07:06:39;;;;;;;4.05;2.75;;;10.30;99.90;;;;;;5034895;28;20502;-82
2022/04/21 07:09:04;;;;;;;5.13;2.05;;;10.40;99.90;;;;;;5052275;28;20041;-82
2022/04/21 07:11:31;;;;;;;4.00;1.92;;;10.70;99.90;;;;;;5051992;28;20097;-82
2022/04/21 07:13:57;;;;;;;2.75;1.90;;;10.90;99.90;;;;;;5051749;28;20045;-82
2022/04/21 07:16:22;;;;;;;3.80;2.30;;;11.00;99.90;;;;;;5052695;28;20098;-81
2022/04/21 07:18:48;;;;;;;5.38;1.58;;;11.20;99.90;;;;;;5053018;28;20086;-81
2022/04/21 07:21:15;;;;;;;2.60;1.67;;;11.30;99.90;;;;;;5072001;28;20025;-80
2022/04/21 07:23:41;;;;;;;7.38;3.50;;;11.50;99.90;;;;;;5074076;28;20053;-80
2022/04/21 07:26:07;;;;;;;4.68;2.10;;;11.60;99.90;;;;;;5057455;28;20095;-79
2022/04/21 07:28:33;;;;;;;5.40;3.03;;;11.70;99.90;;;;;;5054460;28;20040;-79
2022/04/21 07:30:59;;;;;;;3.85;1.55;;;11.80;99.90;;;;;;5072557;28;20049;-78
2022/04/21 07:33:24;;;;;;;4.63;2.20;;;11.90;99.90;;;;;;5072430;28;20086;-78
2022/04/21 07:35:50;;;;;;;3.85;1.70;;;12.10;99.90;;;;;;5064492;28;20067;-79
2022/04/21 07:38:15;;;;;;;2.58;1.50;;;12.20;99.40;;;;;;5062544;28;20041;-79
2022/04/21 07:40:42;;;;;;;2.63;1.63;;;12.20;98.50;;;;;;5044905;28;20136;-79
2022/04/21 07:43:08;;;;;;;2.67;1.35;;;12.30;96.50;;;;;;5062741;28;20040;-79
2022/04/21 07:45:40;;;;;;;2.70;1.88;;;12.30;96.80;;;;;;5062409;28;20095;-79
2022/04/21 07:48:06;;;;;;;3.55;2.00;;;12.40;94.30;;;;;;5061412;28;20108;-79
2022/04/21 07:50:32;;;;;;;4.30;1.80;;;12.40;94.90;;;;;;5061812;28;20037;-79
2022/04/21 07:53:18;;;;;;;4.28;1.42;;;12.50;95.30;;;;;;5060744;28;20665;-79
2022/04/21 07:55:50;;;;;;;3.15;1.80;;;12.60;95.20;;;;;;5060817;28;20064;-79
2022/04/21 07:58:16;;;;;;;3.60;1.85;;;12.80;93.90;;;;;;5061295;28;20322;-79
2022/04/21 08:00:42;;;;;;;2.78;1.17;;;12.90;93.70;;;;;;5060860;28;20437;-79
2022/04/21 08:03:08;;;;;;;3.22;1.52;;;13.00;92.50;;;;;;5060487;28;20116;-80
2022/04/21 08:05:34;;;;;;;3.00;1.77;;;13.10;93.50;;;;;;5061843;28;20056;-80
2022/04/21 08:07:59;;;;;;;4.75;2.38;;;13.30;95.70;;;;;;5060909;28;20060;-79
2022/04/21 08:10:28;;;;;;;3.28;1.60;;;13.60;93.50;;;;;;5061359;28;20037;-79
2022/04/21 08:12:56;;;;;;;3.60;1.27;;;13.70;91.20;;;;;;5060760;28;20064;-80
2022/04/21 08:15:23;;;;;;;4.28;1.83;;;13.80;89.20;;;;;;5044093;28;20041;-79
2022/04/21 08:17:51;;;;;;;4.05;1.25;;;13.90;89.30;;;;;;5059918;28;20045;-79
2022/04/21 08:20:16;;;;;;;4.32;1.60;;;14.00;86.50;;;;;;5044053;28;20395;-80
2022/04/21 08:22:43;;;;;;;4.53;1.90;;;14.10;86.10;;;;;;5059950;28;20041;-80
2022/04/21 08:33:22;;;;;;;4.80;1.40;;;14.20;81.00;;;;;;5060593;28;20048;-80
2022/04/21 08:35:57;;;;;;;2.78;2.13;;;14.50;85.40;;;;;;5060933;28;20045;-79
2022/04/21 08:38:24;;;;;;;3.33;1.42;;;14.60;82.00;;;;;;5060085;28;20044;-80
2022/04/21 08:40:56;;;;;;;3.10;1.27;;;14.60;78.80;;;;;;5059647;28;20467;-80
2022/04/21 08:43:24;;;;;;;2.05;1.02;;;14.80;83.20;;;;;;5060836;28;20051;-80
2022/04/21 08:45:50;;;;;;;2.83;0.98;;;14.90;81.70;;;;;;5059384;28;20128;-80
2022/04/21 08:48:18;;;;;;;4.35;1.20;;;15.10;75.20;;;;;;5061264;28;20092;-80
2022/04/21 08:50:45;;;;;;;4.85;1.25;;;15.10;71.70;;;;;;5060171;28;20051;-80
2022/04/21 08:53:16;;;;;;;3.25;1.20;;;15.00;74.10;;;;;;5060092;28;20102;-79
2022/04/21 08:55:44;;;;;;;2.60;1.48;;;15.00;66.50;;;;;;5043059;28;20407;-80
2022/04/21 08:58:11;;;;;;;2.35;1.00;;;15.00;70.50;;;;;;5059780;28;20045;-79
2022/04/21 09:00:37;;;;;;;1.75;1.08;;;15.10;67.20;;;;;;5059752;28;20511;-80
2022/04/21 09:03:05;;;;;;;3.20;1.75;;;15.20;67.60;;;;;;5043479;28;20064;-79
2022/04/21 09:05:31;;;;;;;3.13;1.08;;;15.30;69.10;;;;;;5059881;28;20041;-79
2022/04/21 09:07:58;;;;;;;2.58;1.58;;;15.40;69.20;;;;;;5059753;28;20037;-80
2022/04/21 09:10:25;;;;;;;3.38;2.47;;;15.50;67.20;;;;;;5042531;28;20105;-80
2022/04/21 09:12:56;;;;;;;2.58;1.52;;;15.50;68.20;;;;;;5043950;28;20100;-80
2022/04/21 09:15:24;;;;;;;3.03;1.60;;;15.70;69.40;;;;;;5059472;28;20040;-80
2022/04/21 09:17:52;;;;;;;3.15;1.27;;;15.90;74.30;;;;;;5060380;28;20053;-80
2022/04/21 09:20:22;;;;;;;2.42;1.10;;;16.00;67.00;;;;;;5061558;28;20053;-80
2022/04/21 09:22:54;;;;;;;1.67;0.75;;;15.80;63.80;;;;;;5062530;28;20413;-81
2022/04/21 09:25:22;;;;;;;2.40;1.02;;;15.80;66.50;;;;;;5062352;28;20037;-81
2022/04/21 09:27:50;;;;;;;4.10;1.40;;;15.80;65.90;;;;;;5062548;28;20045;-81
2022/04/21 09:30:17;;;;;;;1.98;1.05;;;15.80;64.30;;;;;;5062783;28;20040;-80
2022/04/21 09:32:58;;;;;;;2.25;1.15;;;15.90;68.00;;;;;;5062290;28;20037;-80
2022/04/21 09:35:26;;;;;;;5.07;1.52;;;16.10;66.40;;;;;;5062528;28;20294;-80
2022/04/21 09:37:54;;;;;;;2.83;0.93;;;16.30;66.90;;;;;;5061844;28;20097;-80
2022/04/21 09:40:25;;;;;;;2.25;1.15;;;16.30;64.90;;;;;;5061668;28;20048;-80
2022/04/21 09:43:01;;;;;;;2.75;1.30;;;16.30;63.80;;;;;;5062204;28;20124;-81
2022/04/21 09:48:39;;;;;;;1.63;0.80;;;16.60;64.70;;;;;;5054553;28;20163;-81
2022/04/21 09:51:16;;;;;;;2.30;0.98;;;16.50;61.20;;;;;;5053427;28;20487;-81
2022/04/21 09:53:49;;;;;;;1.77;1.08;;;16.40;63.40;;;;;;5052648;28;20049;-81
2022/04/21 09:56:16;;;;;;;4.03;1.23;;;16.40;63.40;;;;;;5052251;28;20044;-81
2022/04/21 09:58:43;;;;;;;1.60;1.05;;;16.50;64.00;;;;;;5035070;28;20055;-81
2022/04/21 10:01:09;;;;;;;2.08;0.90;;;16.60;63.20;;;;;;5053273;28;20041;-80
2022/04/21 10:03:35;;;;;;;3.03;1.38;;;16.50;61.90;;;;;;5052661;28;20055;-81
2022/04/21 10:06:02;;;;;;;2.70;0.80;;;16.70;62.00;;;;;;5052359;28;20052;-81
2022/04/21 10:08:29;;;;;;;2.95;1.02;;;16.80;61.20;;;;;;5052777;28;20067;-81
2022/04/21 10:10:56;;;;;;;2.97;1.38;;;16.90;60.10;;;;;;5053151;28;20116;-81
2022/04/21 10:13:22;;;;;;;1.13;0.88;;;16.80;59.70;;;;;;5051884;28;20033;-80
2022/04/21 10:15:52;;;;;;;2.28;1.48;;;16.90;61.20;;;;;;5051943;28;20041;-81
2022/04/21 10:18:19;;;;;;;3.22;1.23;;;17.20;61.00;;;;;;5051867;28;20037;-81
2022/04/21 10:20:46;;;;;;;3.97;1.08;;;17.30;58.40;;;;;;5051993;28;20056;-80
2022/04/21 10:23:18;;;;;;;2.35;1.02;;;17.30;58.70;;;;;;5052366;28;20087;-81
2022/04/21 10:25:44;;;;;;;1.70;1.13;;;17.30;57.90;;;;;;5051991;28;20084;-81
2022/04/21 10:28:46;;;;;;;2.63;1.42;;;17.40;59.10;;;;;;5052069;28;20088;-80
2022/04/21 10:31:32;;;;;;;2.60;1.13;;;17.50;57.30;;;;;;5052080;28;20052;-82
2022/04/21 10:34:03;;;;;;;4.55;1.10;;;17.40;54.70;;;;;;5052307;28;20124;-81
2022/04/21 10:36:37;;;;;;;2.13;0.75;;;17.40;56.30;;;;;;5052162;28;20067;-81
2022/04/21 10:39:09;;;;;;;2.07;1.47;;;17.30;58.30;;;;;;5032733;28;20037;-81
2022/04/21 10:41:35;;;;;;;2.95;1.00;;;17.40;57.20;;;;;;5032541;28;20284;-80
2022/04/21 10:44:01;;;;;;;1.48;1.20;;;17.60;56.90;;;;;;5015343;28;20523;-81
2022/04/21 10:46:29;;;;;;;3.58;1.40;;;17.50;55.50;;;;;;5029039;28;20511;-81
2022/04/21 10:48:55;;;;;;;1.70;1.40;;;17.30;56.10;;;;;;5051877;28;20542;-81
2022/04/21 10:57:16;;;;;;;1.50;1.20;;;17.00;56.80;;;;;;5051831;28;20081;-81
2022/04/21 10:59:50;;;;;;;3.85;1.20;;;17.10;57.30;;;;;;5052902;28;20084;-81
2022/04/21 11:02:17;;;;;;;3.15;1.38;;;17.30;59.00;;;;;;5053058;28;20047;-81
2022/04/21 11:04:42;;;;;;;2.70;1.67;;;17.50;59.50;;;;;;5051849;28;20079;-81
2022/04/21 11:07:12;;;;;;;3.08;1.70;;;17.70;59.50;;;;;;5051864;28;20049;-81
2022/04/21 11:09:44;;;;;;;2.85;1.60;;;18.00;57.30;;;;;;5052025;28;20398;-82
2022/04/21 11:12:14;;;;;;;1.70;1.20;;;18.20;58.80;;;;;;5051931;28;20051;-81
2022/04/21 11:14:40;;;;;;;3.00;1.50;;;18.30;57.50;;;;;;5051908;28;20467;-81
2022/04/21 11:17:07;;;;;;;1.85;1.17;;;18.30;55.50;;;;;;5051659;28;20041;-81
2022/04/21 11:20:00;;;;;;;2.85;1.48;;;18.20;57.10;;;;;;5052444;28;20045;-80
2022/04/21 11:22:42;;;;;;;2.50;1.10;;;18.30;56.50;;;;;;5049300;28;20056;-81
2022/04/21 11:25:08;;;;;;;2.20;1.33;;;18.70;55.40;;;;;;5052402;28;20399;-81
2022/04/21 11:27:40;;;;;;;3.10;1.63;;;18.80;54.30;;;;;;5051617;28;20548;-81
2022/04/21 11:30:11;;;;;;;5.47;1.55;;;18.90;55.50;;;;;;5052297;28;20118;-81
2022/04/21 11:32:36;;;;;;;3.10;1.83;;;18.80;54.50;;;;;;5052083;28;20056;-82
2022/04/21 11:35:10;;;;;;;2.17;1.70;;;18.60;54.40;;;;;;5052304;28;20045;-81
2022/04/21 11:37:57;;;;;;;3.38;1.88;;;18.80;55.00;;;;;;5052292;28;20072;-81
2022/04/21 11:40:29;;;;;;;2.10;1.50;;;19.00;53.80;;;;;;5052279;28;20075;-81
2022/04/21 11:42:56;;;;;;;2.63;1.02;;;19.10;54.50;;;;;;5051662;28;20522;-81
2022/04/21 11:45:27;;;;;;;3.13;1.83;;;18.90;53.10;;;;;;5052034;28;20048;-81
2022/04/21 11:47:53;;;;;;;3.10;1.63;;;18.70;52.90;;;;;;5052196;28;20461;-81
2022/04/21 11:50:20;;;;;;;2.50;1.65;;;18.50;53.80;;;;;;5051992;28;20565;-81
2022/04/21 11:52:47;;;;;;;4.00;2.35;;;18.30;54.80;;;;;;5051760;28;20048;-81
2022/04/21 11:55:15;;;;;;;4.53;2.60;;;18.30;56.20;;;;;;5052573;28;20040;-81
2022/04/21 11:57:44;;;;;;;2.40;2.08;;;18.80;56.40;;;;;;5051505;28;20087;-81
2022/04/21 12:00:11;;;;;;;3.35;1.77;;;19.20;55.80;;;;;;5034822;28;20521;-81
2022/04/21 12:08:07;;;;;;;6.72;3.25;;;19.80;51.80;;;;;;5071997;28;20076;-80
2022/04/21 12:10:34;;;;;;;3.63;2.00;;;19.80;52.50;;;;;;5070771;28;20041;-81
2022/04/21 12:13:01;;;;;;;4.22;1.83;;;19.90;52.20;;;;;;5071852;28;20082;-81
2022/04/21 12:15:31;;;;;;;2.88;1.60;;;20.00;51.40;;;;;;5072575;28;20064;-81
2022/04/21 12:18:00;;;;;;;2.33;2.08;;;20.20;50.60;;;;;;5064510;28;20120;-81
2022/04/21 12:20:27;;;;;;;1.88;1.52;;;20.40;50.00;;;;;;5041452;28;20040;-81
2022/04/21 12:22:53;;;;;;;2.70;2.13;;;20.50;50.90;;;;;;5061918;28;20091;-81
2022/04/21 12:25:27;;;;;;;2.10;1.73;;;20.40;49.80;;;;;;5061686;28;20041;-82
2022/04/21 12:27:52;;;;;;;2.92;2.47;;;20.30;51.90;;;;;;5061625;28;20123;-81
2022/04/21 12:30:20;;;;;;;9.77;2.67;;;20.50;52.50;;;;;;5062515;28;20071;-81
2022/04/21 12:32:47;;;;;;;3.22;2.50;;;20.60;50.80;;;;;;5062858;28;20063;-81
2022/04/21 12:35:14;;;;;;;4.78;2.05;;;20.60;52.00;;;;;;5062206;28;20049;-81
2022/04/21 12:37:42;;;;;;;4.40;2.75;;;20.60;51.30;;;;;;5062257;28;20091;-81
2022/04/21 12:40:13;;;;;;;3.15;1.80;;;20.40;51.20;;;;;;5044988;28;20171;-80
2022/04/21 12:42:40;;;;;;;4.30;3.03;;;20.40;52.20;;;;;;5061188;28;20059;-81
2022/04/21 12:45:09;;;;;;;3.95;2.28;;;20.30;50.90;;;;;;5061009;28;20044;-82
2022/04/21 12:47:45;;;;;;;3.40;2.38;;;20.40;52.40;;;;;;5060889;28;20037;-81
2022/04/21 12:50:18;;;;;;;4.00;2.78;;;20.30;49.50;;;;;;5061659;28;20036;-80
2022/04/21 12:52:49;;;;;;;2.65;1.95;;;20.40;50.70;;;;;;5061274;28;20044;-81
2022/04/21 12:55:22;;;;;;;3.08;2.28;;;20.50;50.10;;;;;;5061202;28;20091;-81
2022/04/21 12:58:11;;;;;;;2.47;2.28;;;20.60;51.10;;;;;;5060697;28;20070;-81
2022/04/21 13:00:40;;;;;;;4.07;2.42;;;21.00;50.50;;;;;;5044885;28;20399;-80
2022/04/21 13:03:06;;;;;;;3.17;2.25;;;21.10;49.20;;;;;;5044266;28;20108;-81
2022/04/21 13:05:33;;;;;;;3.60;2.80;;;20.90;48.40;;;;;;5060765;28;20055;-81
2022/04/21 13:07:59;;;;;;;4.05;2.65;;;20.90;49.40;;;;;;5060763;28;20423;-81
2022/04/21 13:10:26;;;;;;;4.60;2.53;;;20.40;50.30;;;;;;5061095;28;20037;-80
2022/04/21 13:12:52;;;;;;;3.25;2.35;;;20.10;51.00;;;;;;5059501;28;20068;-81
2022/04/21 13:15:21;;;;;;;3.38;2.05;;;19.60;51.10;;;;;;5049496;28;20033;-81
2022/04/21 13:17:47;;;;;;;2.80;2.10;;;19.20;51.40;;;;;;5049094;28;20037;-80
2022/04/21 13:21:52;;;;;;;3.03;2.47;;;18.90;51.10;;;;;;5057681;28;20131;-80
2022/04/21 13:22:58;;;;;;;3.50;2.88;;;18.90;53.60;;;;;;5059237;28;20114;-81
2022/04/21 13:25:24;;;;;;;12.52;9.02;;;19.50;53.20;;;;;;5044960;28;20319;-81
2022/04/21 13:27:49;;;;;;;39.75;26.25;;;20.10;52.40;;;;;;5033356;28;20120;-80
2022/04/21 13:30:15;;;;;;;25.08;19.10;;;20.60;52.00;;;;;;5055680;28;20060;-81
2022/04/21 13:35:24;;;;;;;28.52;23.13;;;21.20;51.20;;;;;;5040051;28;20045;-81
2022/04/21 13:37:50;;;;;;;46.83;37.33;;;21.40;49.60;;;;;;5038638;28;20049;-80
2022/04/21 13:40:16;;;;;;;12.57;10.40;;;21.50;49.50;;;;;;5052596;28;20407;-81
2022/04/21 13:42:41;;;;;;;6.07;4.43;;;21.30;49.60;;;;;;5057704;28;20097;-80
2022/04/21 13:45:07;;;;;;;5.40;3.35;;;21.10;49.10;;;;;;5048695;28;20480;-80